sensor_id;sensor_type;location;lat;lon;timestamp;pressure;altitude;pressure_sealevel;temperature;humidity
72124;BME280;63818;37.134;-8.548;2023-04-08T00:04:10;101052.1;;;20.1;43.8
72124;BME280;63818;37.134;-8.548;2023-04-08T00:08:58;101047.8;;;20.1;43.6
72124;BME280;63818;37.134;-8.548;2023-04-08T00:13:44;101059.4;;;20.0;43.5
72124;BME280;63818;37.134;-8.548;2023-04-08T00:18:33;101059.0;;;20.0;43.5
72124;BME280;63818;37.134;-8.548;2023-04-08T00:23:19;101056.3;;;20.0;43.7
72124;BME280;63818;37.134;-8.548;2023-04-08T00:28:05;101060.1;;;20.0;43.3
72124;BME280;63818;37.134;-8.548;2023-04-08T00:32:54;101058.0;;;19.9;43.5
72124;BME280;63818;37.134;-8.548;2023-04-08T00:37:39;101059.6;;;20.0;43.3
72124;BME280;63818;37.134;-8.548;2023-04-08T00:42:26;101052.6;;;19.9;43.2
72124;BME280;63818;37.134;-8.548;2023-04-08T00:47:13;101043.5;;;19.9;42.3
72124;BME280;63818;37.134;-8.548;2023-04-08T00:52:00;101033.7;;;19.9;41.6
72124;BME280;63818;37.134;-8.548;2023-04-08T00:56:46;101036.0;;;19.8;42.5
72124;BME280;63818;37.134;-8.548;2023-04-08T01:01:37;101045.7;;;19.8;43.8
72124;BME280;63818;37.134;-8.548;2023-04-08T01:06:31;101037.8;;;19.8;44.7
72124;BME280;63818;37.134;-8.548;2023-04-08T01:11:20;101045.5;;;19.7;44.8
72124;BME280;63818;37.134;-8.548;2023-04-08T01:16:09;101034.2;;;19.7;44.8
72124;BME280;63818;37.134;-8.548;2023-04-08T01:20:57;101031.4;;;19.6;44.3
72124;BME280;63818;37.134;-8.548;2023-04-08T01:25:46;101027.4;;;19.6;43.9
72124;BME280;63818;37.134;-8.548;2023-04-08T01:30:33;101035.7;;;19.7;43.7
72124;BME280;63818;37.134;-8.548;2023-04-08T01:35:20;101031.4;;;19.6;43.7
72124;BME280;63818;37.134;-8.548;2023-04-08T01:40:06;101036.7;;;19.6;43.4
72124;BME280;63818;37.134;-8.548;2023-04-08T01:44:55;101031.9;;;19.5;43.6
72124;BME280;63818;37.134;-8.548;2023-04-08T01:49:42;101027.9;;;19.5;43.6
72124;BME280;63818;37.134;-8.548;2023-04-08T01:54:31;101015.9;;;19.5;43.3
72124;BME280;63818;37.134;-8.548;2023-04-08T01:59:18;101011.8;;;19.4;43.5
72124;BME280;63818;37.134;-8.548;2023-04-08T02:04:05;101016.6;;;19.3;43.9
72124;BME280;63818;37.134;-8.548;2023-04-08T02:08:52;101013.1;;;19.3;44.2
72124;BME280;63818;37.134;-8.548;2023-04-08T02:13:38;101012.6;;;19.2;44.1
72124;BME280;63818;37.134;-8.548;2023-04-08T02:18:25;101018.5;;;19.2;44.0
72124;BME280;63818;37.134;-8.548;2023-04-08T02:23:13;101009.9;;;19.2;43.5
72124;BME280;63818;37.134;-8.548;2023-04-08T02:28:02;101002.5;;;19.2;43.2
72124;BME280;63818;37.134;-8.548;2023-04-08T02:32:53;101012.6;;;19.2;42.7
72124;BME280;63818;37.134;-8.548;2023-04-08T02:37:38;101016.7;;;19.1;42.5
72124;BME280;63818;37.134;-8.548;2023-04-08T02:42:25;101020.5;;;19.1;42.7
72124;BME280;63818;37.134;-8.548;2023-04-08T02:47:11;101010.8;;;19.1;42.0
72124;BME280;63818;37.134;-8.548;2023-04-08T02:51:57;101017.1;;;19.1;42.1
72124;BME280;63818;37.134;-8.548;2023-04-08T02:56:43;101014.7;;;19.1;41.8
72124;BME280;63818;37.134;-8.548;2023-04-08T03:01:29;101010.1;;;19.1;41.8
72124;BME280;63818;37.134;-8.548;2023-04-08T03:06:15;101002.7;;;19.1;41.5
72124;BME280;63818;37.134;-8.548;2023-04-08T03:11:01;101008.1;;;19.1;41.7
72124;BME280;63818;37.134;-8.548;2023-04-08T03:15:47;101010.8;;;19.1;41.9
72124;BME280;63818;37.134;-8.548;2023-04-08T03:20:33;101015.1;;;19.1;42.4
72124;BME280;63818;37.134;-8.548;2023-04-08T03:25:19;101027.8;;;19.1;42.7
72124;BME280;63818;37.134;-8.548;2023-04-08T03:30:09;101027.4;;;19.0;43.0
72124;BME280;63818;37.134;-8.548;2023-04-08T03:34:55;101028.5;;;19.0;43.2
72124;BME280;63818;37.134;-8.548;2023-04-08T03:39:43;101025.3;;;19.0;43.4
72124;BME280;63818;37.134;-8.548;2023-04-08T03:44:32;101020.2;;;19.0;43.6
72124;BME280;63818;37.134;-8.548;2023-04-08T03:49:18;101017.1;;;18.9;43.7
72124;BME280;63818;37.134;-8.548;2023-04-08T03:54:04;101013.6;;;18.9;44.1
72124;BME280;63818;37.134;-8.548;2023-04-08T03:58:51;101014.3;;;18.9;44.2
72124;BME280;63818;37.134;-8.548;2023-04-08T04:03:37;101011.5;;;18.9;44.4
72124;BME280;63818;37.134;-8.548;2023-04-08T04:08:23;101000.6;;;18.9;44.3
72124;BME280;63818;37.134;-8.548;2023-04-08T04:13:09;101001.7;;;18.8;44.7
72124;BME280;63818;37.134;-8.548;2023-04-08T04:17:55;101003.6;;;18.8;44.1
72124;BME280;63818;37.134;-8.548;2023-04-08T04:22:41;100994.6;;;18.8;43.5
72124;BME280;63818;37.134;-8.548;2023-04-08T04:27:29;100978.6;;;18.8;43.6
72124;BME280;63818;37.134;-8.548;2023-04-08T04:32:16;100980.1;;;18.7;43.7
72124;BME280;63818;37.134;-8.548;2023-04-08T04:37:02;100978.1;;;18.7;44.0
72124;BME280;63818;37.134;-8.548;2023-04-08T04:41:48;100974.6;;;18.7;43.8
72124;BME280;63818;37.134;-8.548;2023-04-08T04:46:34;100975.4;;;18.7;43.4
72124;BME280;63818;37.134;-8.548;2023-04-08T04:51:20;100965.7;;;18.7;44.2
72124;BME280;63818;37.134;-8.548;2023-04-08T04:56:06;100977.8;;;18.8;44.8
72124;BME280;63818;37.134;-8.548;2023-04-08T05:00:53;100975.1;;;18.8;45.7
72124;BME280;63818;37.134;-8.548;2023-04-08T05:05:39;100976.8;;;18.7;46.2
72124;BME280;63818;37.134;-8.548;2023-04-08T05:10:28;100979.4;;;18.6;46.3
72124;BME280;63818;37.134;-8.548;2023-04-08T05:15:14;100981.7;;;18.6;46.3
72124;BME280;63818;37.134;-8.548;2023-04-08T05:20:00;100977.3;;;18.5;46.2
72124;BME280;63818;37.134;-8.548;2023-04-08T05:24:46;100978.4;;;18.5;46.3
72124;BME280;63818;37.134;-8.548;2023-04-08T05:29:32;100983.0;;;18.5;46.6
72124;BME280;63818;37.134;-8.548;2023-04-08T05:34:18;100979.5;;;18.5;46.3
72124;BME280;63818;37.134;-8.548;2023-04-08T05:39:04;100986.5;;;18.5;46.8
72124;BME280;63818;37.134;-8.548;2023-04-08T05:43:50;100990.2;;;18.4;47.1
72124;BME280;63818;37.134;-8.548;2023-04-08T05:48:39;100993.6;;;18.4;47.3
72124;BME280;63818;37.134;-8.548;2023-04-08T05:58:11;100999.3;;;18.3;47.4
72124;BME280;63818;37.134;-8.548;2023-04-08T06:02:58;100997.0;;;18.4;47.3
72124;BME280;63818;37.134;-8.548;2023-04-08T06:07:46;101003.5;;;18.3;47.4
72124;BME280;63818;37.134;-8.548;2023-04-08T06:12:33;101007.8;;;18.3;47.0
72124;BME280;63818;37.134;-8.548;2023-04-08T06:17:19;101010.0;;;18.3;47.1
72124;BME280;63818;37.134;-8.548;2023-04-08T06:22:05;101016.7;;;18.3;47.1
72124;BME280;63818;37.134;-8.548;2023-04-08T06:26:54;101022.1;;;18.3;47.4
72124;BME280;63818;37.134;-8.548;2023-04-08T06:31:40;101030.6;;;18.2;48.5
72124;BME280;63818;37.134;-8.548;2023-04-08T06:36:27;101031.3;;;18.2;48.8
72124;BME280;63818;37.134;-8.548;2023-04-08T06:41:13;101031.7;;;18.2;49.2
72124;BME280;63818;37.134;-8.548;2023-04-08T06:45:59;101037.5;;;18.2;49.6
72124;BME280;63818;37.134;-8.548;2023-04-08T06:50:45;101038.6;;;18.2;49.3
72124;BME280;63818;37.134;-8.548;2023-04-08T06:55:31;101046.2;;;18.3;48.2
72124;BME280;63818;37.134;-8.548;2023-04-08T07:00:17;101048.2;;;18.3;47.6
72124;BME280;63818;37.134;-8.548;2023-04-08T07:05:03;101047.7;;;18.2;47.2
72124;BME280;63818;37.134;-8.548;2023-04-08T07:09:49;101042.8;;;18.2;46.7
72124;BME280;63818;37.134;-8.548;2023-04-08T07:14:35;101047.0;;;18.1;46.6
72124;BME280;63818;37.134;-8.548;2023-04-08T07:19:21;101048.1;;;18.1;46.4
72124;BME280;63818;37.134;-8.548;2023-04-08T07:24:07;101045.8;;;18.1;46.4
72124;BME280;63818;37.134;-8.548;2023-04-08T07:28:54;101050.9;;;18.1;46.8
72124;BME280;63818;37.134;-8.548;2023-04-08T07:33:40;101061.0;;;18.1;47.2
72124;BME280;63818;37.134;-8.548;2023-04-08T07:38:26;101061.9;;;18.2;46.9
72124;BME280;63818;37.134;-8.548;2023-04-08T07:43:12;101062.0;;;18.2;46.8
72124;BME280;63818;37.134;-8.548;2023-04-08T07:47:58;101060.1;;;18.3;46.1
72124;BME280;63818;37.134;-8.548;2023-04-08T07:52:45;101063.7;;;18.3;46.0
72124;BME280;63818;37.134;-8.548;2023-04-08T07:57:33;101081.0;;;18.3;45.7
72124;BME280;63818;37.134;-8.548;2023-04-08T08:02:19;101076.4;;;18.4;45.3
72124;BME280;63818;37.134;-8.548;2023-04-08T08:07:05;101084.3;;;18.4;44.9
72124;BME280;63818;37.134;-8.548;2023-04-08T08:11:50;101090.6;;;18.5;44.8
72124;BME280;63818;37.134;-8.548;2023-04-08T08:16:36;101089.6;;;18.5;44.8
72124;BME280;63818;37.134;-8.548;2023-04-08T08:21:22;101090.5;;;18.6;44.7
72124;BME280;63818;37.134;-8.548;2023-04-08T08:26:17;101085.5;;;18.6;43.9
72124;BME280;63818;37.134;-8.548;2023-04-08T08:31:03;101091.9;;;18.7;43.2
72124;BME280;63818;37.134;-8.548;2023-04-08T08:35:49;101099.8;;;18.7;42.6
72124;BME280;63818;37.134;-8.548;2023-04-08T08:40:35;101103.9;;;18.8;42.3
72124;BME280;63818;37.134;-8.548;2023-04-08T08:45:21;101104.3;;;18.8;41.7
72124;BME280;63818;37.134;-8.548;2023-04-08T08:50:08;101109.0;;;18.9;40.9
72124;BME280;63818;37.134;-8.548;2023-04-08T08:54:58;101110.7;;;18.9;40.1
72124;BME280;63818;37.134;-8.548;2023-04-08T08:59:46;101111.9;;;18.9;39.6
72124;BME280;63818;37.134;-8.548;2023-04-08T09:04:32;101125.6;;;19.0;38.5
72124;BME280;63818;37.134;-8.548;2023-04-08T09:09:20;101121.1;;;19.0;38.2
72124;BME280;63818;37.134;-8.548;2023-04-08T09:14:21;101122.4;;;19.1;37.9
72124;BME280;63818;37.134;-8.548;2023-04-08T09:19:09;101129.5;;;19.1;37.7
72124;BME280;63818;37.134;-8.548;2023-04-08T09:23:55;101122.5;;;19.1;37.3
72124;BME280;63818;37.134;-8.548;2023-04-08T09:28:57;101117.2;;;19.2;36.8
72124;BME280;63818;37.134;-8.548;2023-04-08T09:33:33;101124.3;;;19.2;35.7
72124;BME280;63818;37.134;-8.548;2023-04-08T09:38:21;101117.7;;;19.3;35.9
72124;BME280;63818;37.134;-8.548;2023-04-08T09:43:10;101125.6;;;19.3;34.6
72124;BME280;63818;37.134;-8.548;2023-04-08T09:48:08;101129.5;;;19.3;34.3
72124;BME280;63818;37.134;-8.548;2023-04-08T09:52:59;101130.4;;;19.3;34.4
72124;BME280;63818;37.134;-8.548;2023-04-08T09:57:55;101134.0;;;19.4;34.9
72124;BME280;63818;37.134;-8.548;2023-04-08T10:02:46;101138.4;;;19.4;35.1
72124;BME280;63818;37.134;-8.548;2023-04-08T10:07:37;101132.2;;;19.5;35.0
72124;BME280;63818;37.134;-8.548;2023-04-08T10:12:23;101135.4;;;19.5;35.6
72124;BME280;63818;37.134;-8.548;2023-04-08T10:17:26;101149.9;;;19.5;36.6
72124;BME280;63818;37.134;-8.548;2023-04-08T10:22:48;101153.5;;;19.5;37.1
72124;BME280;63818;37.134;-8.548;2023-04-08T10:27:39;101146.4;;;19.5;36.6
72124;BME280;63818;37.134;-8.548;2023-04-08T10:32:44;101155.1;;;19.6;37.6
72124;BME280;63818;37.134;-8.548;2023-04-08T10:37:31;101154.4;;;19.6;38.2
72124;BME280;63818;37.134;-8.548;2023-04-08T10:42:19;101165.4;;;19.7;39.5
72124;BME280;63818;37.134;-8.548;2023-04-08T10:47:07;101177.1;;;19.7;39.4
72124;BME280;63818;37.134;-8.548;2023-04-08T10:51:54;101167.4;;;19.7;40.4
72124;BME280;63818;37.134;-8.548;2023-04-08T10:56:45;101174.4;;;19.7;40.8
72124;BME280;63818;37.134;-8.548;2023-04-08T11:01:39;101167.5;;;19.7;41.5
72124;BME280;63818;37.134;-8.548;2023-04-08T11:06:28;101167.1;;;19.8;42.0
72124;BME280;63818;37.134;-8.548;2023-04-08T11:11:14;101159.0;;;19.8;42.6
72124;BME280;63818;37.134;-8.548;2023-04-08T11:16:02;101158.6;;;19.8;42.8
72124;BME280;63818;37.134;-8.548;2023-04-08T11:20:51;101163.4;;;19.8;42.8
72124;BME280;63818;37.134;-8.548;2023-04-08T11:25:38;101158.3;;;19.9;43.5
72124;BME280;63818;37.134;-8.548;2023-04-08T11:30:28;101156.1;;;19.9;43.8
72124;BME280;63818;37.134;-8.548;2023-04-08T11:35:15;101155.7;;;19.9;43.9
72124;BME280;63818;37.134;-8.548;2023-04-08T11:40:03;101160.8;;;19.9;44.8
72124;BME280;63818;37.134;-8.548;2023-04-08T11:44:51;101171.3;;;19.9;45.5
72124;BME280;63818;37.134;-8.548;2023-04-08T11:49:45;101172.9;;;19.9;45.9
72124;BME280;63818;37.134;-8.548;2023-04-08T11:54:44;101175.3;;;19.9;46.0
72124;BME280;63818;37.134;-8.548;2023-04-08T11:59:32;101171.4;;;20.0;46.5
72124;BME280;63818;37.134;-8.548;2023-04-08T12:04:18;101165.2;;;19.9;46.4
72124;BME280;63818;37.134;-8.548;2023-04-08T12:09:05;101157.4;;;19.9;46.8
72124;BME280;63818;37.134;-8.548;2023-04-08T12:13:51;101161.3;;;20.0;46.6
72124;BME280;63818;37.134;-8.548;2023-04-08T12:18:39;101160.5;;;20.0;47.3
72124;BME280;63818;37.134;-8.548;2023-04-08T12:23:28;101155.9;;;20.0;47.3
72124;BME280;63818;37.134;-8.548;2023-04-08T12:28:14;101153.9;;;20.0;47.8
72124;BME280;63818;37.134;-8.548;2023-04-08T12:33:00;101153.2;;;20.0;48.0
72124;BME280;63818;37.134;-8.548;2023-04-08T12:37:45;101159.9;;;20.0;48.1
72124;BME280;63818;37.134;-8.548;2023-04-08T12:42:31;101154.4;;;20.0;48.3
72124;BME280;63818;37.134;-8.548;2023-04-08T12:47:17;101163.8;;;20.0;48.3
72124;BME280;63818;37.134;-8.548;2023-04-08T12:52:06;101170.0;;;20.0;48.4
72124;BME280;63818;37.134;-8.548;2023-04-08T12:56:52;101170.9;;;20.1;49.1
72124;BME280;63818;37.134;-8.548;2023-04-08T13:01:42;101166.7;;;20.1;49.3
72124;BME280;63818;37.134;-8.548;2023-04-08T13:06:28;101169.0;;;20.1;48.9
72124;BME280;63818;37.134;-8.548;2023-04-08T13:11:16;101162.9;;;20.2;49.4
72124;BME280;63818;37.134;-8.548;2023-04-08T13:16:05;101140.7;;;20.2;49.3
72124;BME280;63818;37.134;-8.548;2023-04-08T13:25:42;101147.0;;;20.2;48.9
72124;BME280;63818;37.134;-8.548;2023-04-08T13:30:28;101141.2;;;20.3;49.1
72124;BME280;63818;37.134;-8.548;2023-04-08T13:35:20;101143.2;;;20.3;50.1
72124;BME280;63818;37.134;-8.548;2023-04-08T13:40:06;101150.3;;;20.3;50.4
72124;BME280;63818;37.134;-8.548;2023-04-08T13:44:55;101148.3;;;20.3;50.6
72124;BME280;63818;37.134;-8.548;2023-04-08T13:49:45;101144.1;;;20.3;50.3
72124;BME280;63818;37.134;-8.548;2023-04-08T13:54:31;101143.8;;;20.4;49.3
72124;BME280;63818;37.134;-8.548;2023-04-08T13:59:19;101135.6;;;20.4;49.4
72124;BME280;63818;37.134;-8.548;2023-04-08T14:04:07;101137.6;;;20.4;49.3
72124;BME280;63818;37.134;-8.548;2023-04-08T14:08:53;101148.2;;;20.5;49.6
72124;BME280;63818;37.134;-8.548;2023-04-08T14:13:40;101154.9;;;20.5;50.8
72124;BME280;63818;37.134;-8.548;2023-04-08T14:18:26;101156.5;;;20.5;51.3
72124;BME280;63818;37.134;-8.548;2023-04-08T14:23:12;101146.8;;;20.5;51.3
72124;BME280;63818;37.134;-8.548;2023-04-08T14:27:58;101148.7;;;20.5;51.5
72124;BME280;63818;37.134;-8.548;2023-04-08T14:32:46;101149.5;;;20.5;51.7
72124;BME280;63818;37.134;-8.548;2023-04-08T14:37:32;101151.2;;;20.6;52.1
72124;BME280;63818;37.134;-8.548;2023-04-08T14:42:18;101154.0;;;20.6;52.1
72124;BME280;63818;37.134;-8.548;2023-04-08T14:47:07;101143.9;;;20.7;51.5
72124;BME280;63818;37.134;-8.548;2023-04-08T14:51:53;101125.3;;;20.7;51.9
72124;BME280;63818;37.134;-8.548;2023-04-08T14:56:39;101125.4;;;20.8;51.6
72124;BME280;63818;37.134;-8.548;2023-04-08T15:01:25;101119.2;;;20.8;51.5
72124;BME280;63818;37.134;-8.548;2023-04-08T15:06:15;101106.8;;;20.9;51.6
72124;BME280;63818;37.134;-8.548;2023-04-08T15:11:03;101099.2;;;21.0;50.3
72124;BME280;63818;37.134;-8.548;2023-04-08T15:15:49;101095.7;;;21.1;50.2
72124;BME280;63818;37.134;-8.548;2023-04-08T15:20:35;101104.0;;;21.1;49.5
72124;BME280;63818;37.134;-8.548;2023-04-08T15:25:21;101093.2;;;21.2;48.9
72124;BME280;63818;37.134;-8.548;2023-04-08T15:30:08;101095.2;;;21.2;49.5
72124;BME280;63818;37.134;-8.548;2023-04-08T15:34:54;101098.9;;;21.3;50.1
72124;BME280;63818;37.134;-8.548;2023-04-08T15:39:40;101088.0;;;21.4;49.6
72124;BME280;63818;37.134;-8.548;2023-04-08T15:44:29;101094.5;;;21.6;49.7
72124;BME280;63818;37.134;-8.548;2023-04-08T15:49:15;101089.2;;;21.7;49.2
72124;BME280;63818;37.134;-8.548;2023-04-08T15:54:03;101099.9;;;21.9;49.1
72124;BME280;63818;37.134;-8.548;2023-04-08T15:58:50;101092.7;;;22.0;48.1
72124;BME280;63818;37.134;-8.548;2023-04-08T16:03:36;101098.6;;;22.1;48.5
72124;BME280;63818;37.134;-8.548;2023-04-08T16:08:22;101104.6;;;22.1;48.7
72124;BME280;63818;37.134;-8.548;2023-04-08T16:13:09;101099.9;;;22.2;48.8
72124;BME280;63818;37.134;-8.548;2023-04-08T16:17:57;101104.6;;;22.3;49.2
72124;BME280;63818;37.134;-8.548;2023-04-08T16:22:43;101097.6;;;22.3;48.8
72124;BME280;63818;37.134;-8.548;2023-04-08T16:27:29;101099.2;;;22.3;48.8
72124;BME280;63818;37.134;-8.548;2023-04-08T16:32:15;101097.3;;;22.4;48.9
72124;BME280;63818;37.134;-8.548;2023-04-08T16:37:01;101087.9;;;22.3;48.9
72124;BME280;63818;37.134;-8.548;2023-04-08T16:41:47;101084.8;;;22.4;49.4
72124;BME280;63818;37.134;-8.548;2023-04-08T16:46:33;101089.1;;;22.4;49.1
72124;BME280;63818;37.134;-8.548;2023-04-08T16:51:21;101087.2;;;22.4;49.6
72124;BME280;63818;37.134;-8.548;2023-04-08T16:56:13;101090.3;;;22.4;49.5
72124;BME280;63818;37.134;-8.548;2023-04-08T17:00:59;101084.8;;;22.4;49.3
72124;BME280;63818;37.134;-8.548;2023-04-08T17:05:45;101087.9;;;22.4;48.8
72124;BME280;63818;37.134;-8.548;2023-04-08T17:10:31;101087.1;;;22.3;49.3
72124;BME280;63818;37.134;-8.548;2023-04-08T17:15:17;101096.5;;;22.3;49.7
72124;BME280;63818;37.134;-8.548;2023-04-08T17:20:04;101100.7;;;22.2;50.4
72124;BME280;63818;37.134;-8.548;2023-04-08T17:24:50;101114.7;;;22.2;50.3
72124;BME280;63818;37.134;-8.548;2023-04-08T17:29:37;101110.8;;;22.1;50.7
72124;BME280;63818;37.134;-8.548;2023-04-08T17:34:23;101113.1;;;22.1;50.9
72124;BME280;63818;37.134;-8.548;2023-04-08T17:39:09;101117.3;;;22.0;51.7
72124;BME280;63818;37.134;-8.548;2023-04-08T17:43:55;101127.4;;;22.0;51.8
72124;BME280;63818;37.134;-8.548;2023-04-08T17:48:41;101134.4;;;21.9;52.1
72124;BME280;63818;37.134;-8.548;2023-04-08T17:53:28;101139.7;;;21.8;52.4
72124;BME280;63818;37.134;-8.548;2023-04-08T17:58:15;101141.2;;;21.8;52.9
72124;BME280;63818;37.134;-8.548;2023-04-08T18:03:03;101140.4;;;21.7;53.0
72124;BME280;63818;37.134;-8.548;2023-04-08T18:07:49;101155.9;;;21.6;53.5
72124;BME280;63818;37.134;-8.548;2023-04-08T18:12:35;101158.5;;;21.5;53.5
72124;BME280;63818;37.134;-8.548;2023-04-08T18:17:21;101167.9;;;21.5;54.0
72124;BME280;63818;37.134;-8.548;2023-04-08T18:22:07;101180.3;;;21.4;54.6
72124;BME280;63818;37.134;-8.548;2023-04-08T18:26:53;101175.9;;;21.4;55.1
72124;BME280;63818;37.134;-8.548;2023-04-08T18:31:39;101183.6;;;21.3;55.4
72124;BME280;63818;37.134;-8.548;2023-04-08T18:36:28;101179.2;;;21.3;56.1
72124;BME280;63818;37.134;-8.548;2023-04-08T18:41:16;101181.9;;;21.2;55.9
72124;BME280;63818;37.134;-8.548;2023-04-08T18:46:03;101189.7;;;21.2;56.3
72124;BME280;63818;37.134;-8.548;2023-04-08T18:50:48;101196.6;;;21.1;56.5
72124;BME280;63818;37.134;-8.548;2023-04-08T18:55:35;101198.5;;;21.1;56.8
72124;BME280;63818;37.134;-8.548;2023-04-08T19:00:21;101203.1;;;21.1;56.9
72124;BME280;63818;37.134;-8.548;2023-04-08T19:05:07;101207.0;;;21.0;57.0
72124;BME280;63818;37.134;-8.548;2023-04-08T19:09:56;101213.2;;;21.0;56.7
72124;BME280;63818;37.134;-8.548;2023-04-08T19:14:42;101212.4;;;21.0;56.7
72124;BME280;63818;37.134;-8.548;2023-04-08T19:19:29;101207.6;;;21.0;56.5
72124;BME280;63818;37.134;-8.548;2023-04-08T19:24:15;101217.3;;;20.9;56.8
72124;BME280;63818;37.134;-8.548;2023-04-08T19:29:01;101223.6;;;21.0;56.5
72124;BME280;63818;37.134;-8.548;2023-04-08T19:33:49;101227.0;;;20.9;56.2
72124;BME280;63818;37.134;-8.548;2023-04-08T19:38:35;101237.5;;;20.9;56.4
72124;BME280;63818;37.134;-8.548;2023-04-08T19:43:21;101237.6;;;20.9;56.5
72124;BME280;63818;37.134;-8.548;2023-04-08T19:48:07;101255.6;;;21.0;56.7
72124;BME280;63818;37.134;-8.548;2023-04-08T19:52:53;101257.9;;;20.9;57.0
72124;BME280;63818;37.134;-8.548;2023-04-08T19:57:39;101270.1;;;21.0;57.1
72124;BME280;63818;37.134;-8.548;2023-04-08T20:02:25;101275.9;;;21.0;56.9
72124;BME280;63818;37.134;-8.548;2023-04-08T20:07:11;101293.4;;;20.9;57.0
72124;BME280;63818;37.134;-8.548;2023-04-08T20:11:58;101300.4;;;20.9;56.9
72124;BME280;63818;37.134;-8.548;2023-04-08T20:16:44;101298.9;;;20.9;57.0
72124;BME280;63818;37.134;-8.548;2023-04-08T20:21:30;101312.5;;;20.9;56.8
72124;BME280;63818;37.134;-8.548;2023-04-08T20:26:16;101319.9;;;20.9;57.0
72124;BME280;63818;37.134;-8.548;2023-04-08T20:31:03;101326.6;;;20.9;57.1
72124;BME280;63818;37.134;-8.548;2023-04-08T20:35:49;101334.4;;;20.9;57.0
72124;BME280;63818;37.134;-8.548;2023-04-08T20:40:40;101333.9;;;20.9;57.2
72124;BME280;63818;37.134;-8.548;2023-04-08T20:45:26;101346.4;;;20.9;57.5
72124;BME280;63818;37.134;-8.548;2023-04-08T20:50:12;101362.0;;;20.9;57.4
72124;BME280;63818;37.134;-8.548;2023-04-08T20:55:00;101364.3;;;20.9;57.5
72124;BME280;63818;37.134;-8.548;2023-04-08T20:59:47;101372.5;;;20.8;57.5
72124;BME280;63818;37.134;-8.548;2023-04-08T21:04:32;101366.9;;;20.8;58.0
72124;BME280;63818;37.134;-8.548;2023-04-08T21:09:19;101377.7;;;20.7;58.3
72124;BME280;63818;37.134;-8.548;2023-04-08T21:14:05;101376.5;;;20.7;58.4
72124;BME280;63818;37.134;-8.548;2023-04-08T21:18:51;101377.6;;;20.7;58.4
72124;BME280;63818;37.134;-8.548;2023-04-08T21:23:37;101375.6;;;20.7;58.6
72124;BME280;63818;37.134;-8.548;2023-04-08T21:28:23;101383.8;;;20.7;58.4
72124;BME280;63818;37.134;-8.548;2023-04-08T21:33:09;101383.8;;;20.7;58.3
72124;BME280;63818;37.134;-8.548;2023-04-08T21:37:55;101381.8;;;20.6;58.6
72124;BME280;63818;37.134;-8.548;2023-04-08T21:42:40;101390.3;;;20.6;58.5
72124;BME280;63818;37.134;-8.548;2023-04-08T21:47:26;101376.3;;;20.6;58.5
72124;BME280;63818;37.134;-8.548;2023-04-08T21:52:15;101385.2;;;20.6;58.9
72124;BME280;63818;37.134;-8.548;2023-04-08T21:57:01;101387.9;;;20.6;58.7
72124;BME280;63818;37.134;-8.548;2023-04-08T22:01:47;101385.9;;;20.5;59.1
72124;BME280;63818;37.134;-8.548;2023-04-08T22:06:33;101391.4;;;20.5;59.1
72124;BME280;63818;37.134;-8.548;2023-04-08T22:11:19;101399.5;;;20.5;59.0
72124;BME280;63818;37.134;-8.548;2023-04-08T22:16:06;101394.0;;;20.5;59.2
72124;BME280;63818;37.134;-8.548;2023-04-08T22:20:52;101399.5;;;20.5;59.3
72124;BME280;63818;37.134;-8.548;2023-04-08T22:25:38;101397.5;;;20.5;59.4
72124;BME280;63818;37.134;-8.548;2023-04-08T22:30:24;101400.6;;;20.5;59.8
72124;BME280;63818;37.134;-8.548;2023-04-08T22:35:10;101386.5;;;20.5;59.6
72124;BME280;63818;37.134;-8.548;2023-04-08T22:39:57;101386.4;;;20.4;59.4
72124;BME280;63818;37.134;-8.548;2023-04-08T22:44:43;101382.2;;;20.4;59.2
72124;BME280;63818;37.134;-8.548;2023-04-08T22:49:30;101384.1;;;20.4;59.1
72124;BME280;63818;37.134;-8.548;2023-04-08T22:54:16;101379.3;;;20.4;59.1
72124;BME280;63818;37.134;-8.548;2023-04-08T22:59:01;101385.9;;;20.4;59.1
72124;BME280;63818;37.134;-8.548;2023-04-08T23:03:47;101390.7;;;20.4;58.8
72124;BME280;63818;37.134;-8.548;2023-04-08T23:08:33;101393.7;;;20.4;58.7
72124;BME280;63818;37.134;-8.548;2023-04-08T23:13:20;101386.8;;;20.3;58.8
72124;BME280;63818;37.134;-8.548;2023-04-08T23:18:05;101398.0;;;20.2;59.0
72124;BME280;63818;37.134;-8.548;2023-04-08T23:22:52;101392.8;;;20.1;59.1
72124;BME280;63818;37.134;-8.548;2023-04-08T23:27:38;101383.6;;;20.0;59.3
72124;BME280;63818;37.134;-8.548;2023-04-08T23:32:25;101390.6;;;20.0;59.2
72124;BME280;63818;37.134;-8.548;2023-04-08T23:37:10;101393.6;;;20.0;59.0
72124;BME280;63818;37.134;-8.548;2023-04-08T23:41:56;101389.3;;;20.0;59.3
72124;BME280;63818;37.134;-8.548;2023-04-08T23:46:43;101397.9;;;20.0;59.0
72124;BME280;63818;37.134;-8.548;2023-04-08T23:51:29;101393.2;;;20.0;59.2
72124;BME280;63818;37.134;-8.548;2023-04-08T23:56:15;101385.7;;;20.0;58.9
